sensor_id;sensor_type;location;lat;lon;timestamp;P1;durP1;ratioP1;P2;durP2;ratioP2
52786;SDS011;38661;53.152;5.846;2022-10-16T00:01:22;7.82;;;2.05;;
52786;SDS011;38661;53.152;5.846;2022-10-16T00:03:50;5.90;;;1.38;;
52786;SDS011;38661;53.152;5.846;2022-10-16T00:06:16;7.75;;;1.60;;
52786;SDS011;38661;53.152;5.846;2022-10-16T00:08:43;6.15;;;2.30;;
52786;SDS011;38661;53.152;5.846;2022-10-16T00:13:40;5.80;;;1.40;;
52786;SDS011;38661;53.152;5.846;2022-10-16T00:16:08;6.47;;;1.70;;
52786;SDS011;38661;53.152;5.846;2022-10-16T00:18:36;7.85;;;1.63;;
52786;SDS011;38661;53.152;5.846;2022-10-16T00:21:03;10.20;;;1.60;;
52786;SDS011;38661;53.152;5.846;2022-10-16T00:23:31;7.00;;;2.45;;
52786;SDS011;38661;53.152;5.846;2022-10-16T00:25:58;8.20;;;1.75;;
52786;SDS011;38661;53.152;5.846;2022-10-16T00:28:25;7.07;;;1.50;;
52786;SDS011;38661;53.152;5.846;2022-10-16T00:30:51;7.53;;;1.67;;
52786;SDS011;38661;53.152;5.846;2022-10-16T00:33:17;5.05;;;1.35;;
52786;SDS011;38661;53.152;5.846;2022-10-16T00:35:43;5.53;;;1.38;;
52786;SDS011;38661;53.152;5.846;2022-10-16T00:38:09;4.47;;;1.30;;
52786;SDS011;38661;53.152;5.846;2022-10-16T00:40:35;8.57;;;1.30;;
52786;SDS011;38661;53.152;5.846;2022-10-16T00:43:00;8.18;;;1.38;;
52786;SDS011;38661;53.152;5.846;2022-10-16T00:45:26;3.78;;;1.17;;
52786;SDS011;38661;53.152;5.846;2022-10-16T00:47:52;4.00;;;1.55;;
52786;SDS011;38661;53.152;5.846;2022-10-16T00:52:52;4.95;;;1.35;;
52786;SDS011;38661;53.152;5.846;2022-10-16T00:55:19;7.55;;;1.52;;
52786;SDS011;38661;53.152;5.846;2022-10-16T00:57:46;5.97;;;1.27;;
52786;SDS011;38661;53.152;5.846;2022-10-16T01:00:14;5.57;;;1.20;;
52786;SDS011;38661;53.152;5.846;2022-10-16T01:02:51;6.00;;;1.42;;
52786;SDS011;38661;53.152;5.846;2022-10-16T01:05:44;8.43;;;2.33;;
52786;SDS011;38661;53.152;5.846;2022-10-16T01:08:19;5.78;;;1.13;;
52786;SDS011;38661;53.152;5.846;2022-10-16T01:11:00;5.80;;;1.45;;
52786;SDS011;38661;53.152;5.846;2022-10-16T01:13:35;4.43;;;1.00;;
52786;SDS011;38661;53.152;5.846;2022-10-16T01:18:45;4.20;;;1.13;;
52786;SDS011;38661;53.152;5.846;2022-10-16T01:21:21;3.63;;;1.30;;
52786;SDS011;38661;53.152;5.846;2022-10-16T01:29:34;4.15;;;2.00;;
52786;SDS011;38661;53.152;5.846;2022-10-16T01:32:10;4.43;;;1.23;;
52786;SDS011;38661;53.152;5.846;2022-10-16T01:35:02;5.03;;;1.23;;
52786;SDS011;38661;53.152;5.846;2022-10-16T01:37:40;3.88;;;1.25;;
52786;SDS011;38661;53.152;5.846;2022-10-16T01:40:14;2.72;;;1.20;;
52786;SDS011;38661;53.152;5.846;2022-10-16T01:42:44;3.83;;;1.20;;
52786;SDS011;38661;53.152;5.846;2022-10-16T01:45:14;3.63;;;1.08;;
52786;SDS011;38661;53.152;5.846;2022-10-16T01:47:43;3.63;;;1.30;;
52786;SDS011;38661;53.152;5.846;2022-10-16T01:50:09;5.63;;;1.50;;
52786;SDS011;38661;53.152;5.846;2022-10-16T01:52:38;7.72;;;1.58;;
52786;SDS011;38661;53.152;5.846;2022-10-16T01:55:07;6.72;;;1.90;;
52786;SDS011;38661;53.152;5.846;2022-10-16T01:57:36;3.35;;;1.38;;
52786;SDS011;38661;53.152;5.846;2022-10-16T02:00:09;5.45;;;1.60;;
52786;SDS011;38661;53.152;5.846;2022-10-16T02:02:38;5.93;;;2.05;;
52786;SDS011;38661;53.152;5.846;2022-10-16T02:07:43;4.57;;;2.15;;
52786;SDS011;38661;53.152;5.846;2022-10-16T02:10:09;6.22;;;1.67;;
52786;SDS011;38661;53.152;5.846;2022-10-16T02:12:36;4.72;;;1.67;;
52786;SDS011;38661;53.152;5.846;2022-10-16T02:15:05;5.20;;;2.22;;
52786;SDS011;38661;53.152;5.846;2022-10-16T02:17:31;3.28;;;1.60;;
52786;SDS011;38661;53.152;5.846;2022-10-16T02:19:57;5.30;;;1.73;;
52786;SDS011;38661;53.152;5.846;2022-10-16T02:27:55;3.33;;;1.70;;
52786;SDS011;38661;53.152;5.846;2022-10-16T02:30:28;5.57;;;1.80;;
52786;SDS011;38661;53.152;5.846;2022-10-16T02:32:58;5.53;;;1.80;;
52786;SDS011;38661;53.152;5.846;2022-10-16T02:35:26;3.35;;;1.30;;
52786;SDS011;38661;53.152;5.846;2022-10-16T02:37:53;3.08;;;1.38;;
52786;SDS011;38661;53.152;5.846;2022-10-16T02:40:20;3.50;;;1.40;;
52786;SDS011;38661;53.152;5.846;2022-10-16T02:42:49;3.55;;;1.30;;
52786;SDS011;38661;53.152;5.846;2022-10-16T02:45:18;3.95;;;1.70;;
52786;SDS011;38661;53.152;5.846;2022-10-16T02:47:45;5.03;;;1.70;;
52786;SDS011;38661;53.152;5.846;2022-10-16T02:50:10;3.20;;;1.45;;
52786;SDS011;38661;53.152;5.846;2022-10-16T02:52:36;3.85;;;1.38;;
52786;SDS011;38661;53.152;5.846;2022-10-16T02:55:02;3.20;;;1.45;;
52786;SDS011;38661;53.152;5.846;2022-10-16T02:57:28;3.72;;;2.00;;
52786;SDS011;38661;53.152;5.846;2022-10-16T02:59:54;3.25;;;1.35;;
52786;SDS011;38661;53.152;5.846;2022-10-16T03:02:19;4.80;;;1.92;;
52786;SDS011;38661;53.152;5.846;2022-10-16T03:04:45;3.20;;;1.50;;
52786;SDS011;38661;53.152;5.846;2022-10-16T03:07:11;3.50;;;1.52;;
52786;SDS011;38661;53.152;5.846;2022-10-16T03:09:36;4.20;;;1.60;;
52786;SDS011;38661;53.152;5.846;2022-10-16T03:12:02;5.93;;;1.75;;
52786;SDS011;38661;53.152;5.846;2022-10-16T03:14:28;4.45;;;1.95;;
52786;SDS011;38661;53.152;5.846;2022-10-16T03:16:53;8.38;;;2.13;;
52786;SDS011;38661;53.152;5.846;2022-10-16T03:19:19;4.70;;;1.88;;
52786;SDS011;38661;53.152;5.846;2022-10-16T03:21:45;3.08;;;1.60;;
52786;SDS011;38661;53.152;5.846;2022-10-16T03:24:11;7.40;;;1.88;;
52786;SDS011;38661;53.152;5.846;2022-10-16T03:26:36;4.38;;;1.55;;
52786;SDS011;38661;53.152;5.846;2022-10-16T03:29:02;5.93;;;1.52;;
52786;SDS011;38661;53.152;5.846;2022-10-16T03:31:29;5.55;;;1.20;;
52786;SDS011;38661;53.152;5.846;2022-10-16T03:33:55;3.88;;;1.33;;
52786;SDS011;38661;53.152;5.846;2022-10-16T03:36:20;4.57;;;1.50;;
52786;SDS011;38661;53.152;5.846;2022-10-16T03:38:46;6.03;;;2.22;;
52786;SDS011;38661;53.152;5.846;2022-10-16T03:41:12;3.22;;;1.20;;
52786;SDS011;38661;53.152;5.846;2022-10-16T03:43:38;3.08;;;1.38;;
52786;SDS011;38661;53.152;5.846;2022-10-16T03:46:03;3.15;;;1.50;;
52786;SDS011;38661;53.152;5.846;2022-10-16T03:48:29;6.90;;;1.58;;
52786;SDS011;38661;53.152;5.846;2022-10-16T03:50:55;4.90;;;1.40;;
52786;SDS011;38661;53.152;5.846;2022-10-16T03:53:21;4.45;;;1.10;;
52786;SDS011;38661;53.152;5.846;2022-10-16T03:55:46;2.63;;;1.25;;
52786;SDS011;38661;53.152;5.846;2022-10-16T03:58:12;4.20;;;1.75;;
52786;SDS011;38661;53.152;5.846;2022-10-16T04:00:41;4.63;;;1.50;;
52786;SDS011;38661;53.152;5.846;2022-10-16T04:03:08;4.60;;;1.30;;
52786;SDS011;38661;53.152;5.846;2022-10-16T04:05:34;2.85;;;1.30;;
52786;SDS011;38661;53.152;5.846;2022-10-16T04:07:59;4.85;;;2.10;;
52786;SDS011;38661;53.152;5.846;2022-10-16T04:10:25;3.63;;;1.50;;
52786;SDS011;38661;53.152;5.846;2022-10-16T04:12:51;4.55;;;1.90;;
52786;SDS011;38661;53.152;5.846;2022-10-16T04:15:19;6.03;;;1.95;;
52786;SDS011;38661;53.152;5.846;2022-10-16T04:17:45;4.60;;;1.70;;
52786;SDS011;38661;53.152;5.846;2022-10-16T04:20:11;4.05;;;1.63;;
52786;SDS011;38661;53.152;5.846;2022-10-16T04:22:36;4.57;;;1.40;;
52786;SDS011;38661;53.152;5.846;2022-10-16T04:25:02;3.15;;;1.60;;
52786;SDS011;38661;53.152;5.846;2022-10-16T04:27:28;4.95;;;1.60;;
52786;SDS011;38661;53.152;5.846;2022-10-16T04:29:56;4.55;;;1.58;;
52786;SDS011;38661;53.152;5.846;2022-10-16T04:32:24;6.53;;;1.73;;
52786;SDS011;38661;53.152;5.846;2022-10-16T04:34:51;5.68;;;1.40;;
52786;SDS011;38661;53.152;5.846;2022-10-16T04:37:16;3.67;;;1.42;;
52786;SDS011;38661;53.152;5.846;2022-10-16T04:39:42;2.58;;;1.92;;
52786;SDS011;38661;53.152;5.846;2022-10-16T04:42:08;3.85;;;1.70;;
52786;SDS011;38661;53.152;5.846;2022-10-16T04:44:34;3.13;;;1.33;;
52786;SDS011;38661;53.152;5.846;2022-10-16T04:47:00;2.65;;;1.13;;
52786;SDS011;38661;53.152;5.846;2022-10-16T04:49:26;2.75;;;1.40;;
52786;SDS011;38661;53.152;5.846;2022-10-16T04:51:52;4.53;;;1.70;;
52786;SDS011;38661;53.152;5.846;2022-10-16T04:54:17;5.85;;;2.03;;
52786;SDS011;38661;53.152;5.846;2022-10-16T04:56:43;3.72;;;1.63;;
52786;SDS011;38661;53.152;5.846;2022-10-16T04:59:12;3.70;;;1.40;;
52786;SDS011;38661;53.152;5.846;2022-10-16T05:01:39;2.72;;;1.70;;
52786;SDS011;38661;53.152;5.846;2022-10-16T05:04:05;6.53;;;2.40;;
52786;SDS011;38661;53.152;5.846;2022-10-16T05:06:31;5.63;;;1.90;;
52786;SDS011;38661;53.152;5.846;2022-10-16T05:08:57;5.85;;;2.22;;
52786;SDS011;38661;53.152;5.846;2022-10-16T05:11:23;6.57;;;2.58;;
52786;SDS011;38661;53.152;5.846;2022-10-16T05:13:49;4.07;;;2.45;;
52786;SDS011;38661;53.152;5.846;2022-10-16T05:16:14;5.90;;;2.90;;
52786;SDS011;38661;53.152;5.846;2022-10-16T05:18:40;4.88;;;2.30;;
52786;SDS011;38661;53.152;5.846;2022-10-16T05:21:06;8.82;;;3.70;;
52786;SDS011;38661;53.152;5.846;2022-10-16T05:23:31;5.32;;;2.47;;
52786;SDS011;38661;53.152;5.846;2022-10-16T05:25:58;7.30;;;2.75;;
52786;SDS011;38661;53.152;5.846;2022-10-16T05:28:25;5.75;;;2.70;;
52786;SDS011;38661;53.152;5.846;2022-10-16T05:30:52;7.00;;;2.90;;
52786;SDS011;38661;53.152;5.846;2022-10-16T05:33:21;7.38;;;3.47;;
52786;SDS011;38661;53.152;5.846;2022-10-16T05:35:48;4.75;;;2.60;;
52786;SDS011;38661;53.152;5.846;2022-10-16T05:38:15;9.20;;;3.50;;
52786;SDS011;38661;53.152;5.846;2022-10-16T05:40:41;6.05;;;2.65;;
52786;SDS011;38661;53.152;5.846;2022-10-16T05:43:07;9.93;;;3.53;;
52786;SDS011;38661;53.152;5.846;2022-10-16T05:45:33;5.45;;;2.60;;
52786;SDS011;38661;53.152;5.846;2022-10-16T05:47:59;9.13;;;3.47;;
52786;SDS011;38661;53.152;5.846;2022-10-16T05:50:25;6.65;;;2.90;;
52786;SDS011;38661;53.152;5.846;2022-10-16T05:52:52;6.63;;;2.85;;
52786;SDS011;38661;53.152;5.846;2022-10-16T05:55:17;6.25;;;3.70;;
52786;SDS011;38661;53.152;5.846;2022-10-16T05:57:43;10.32;;;2.95;;
52786;SDS011;38661;53.152;5.846;2022-10-16T06:00:09;7.85;;;3.33;;
52786;SDS011;38661;53.152;5.846;2022-10-16T06:02:35;5.80;;;2.67;;
52786;SDS011;38661;53.152;5.846;2022-10-16T06:05:01;8.52;;;2.78;;
52786;SDS011;38661;53.152;5.846;2022-10-16T06:07:27;8.07;;;3.30;;
52786;SDS011;38661;53.152;5.846;2022-10-16T06:09:53;6.30;;;2.53;;
52786;SDS011;38661;53.152;5.846;2022-10-16T06:12:18;5.32;;;2.20;;
52786;SDS011;38661;53.152;5.846;2022-10-16T06:14:45;11.93;;;3.00;;
52786;SDS011;38661;53.152;5.846;2022-10-16T06:17:12;4.45;;;2.28;;
52786;SDS011;38661;53.152;5.846;2022-10-16T06:19:39;4.80;;;2.70;;
52786;SDS011;38661;53.152;5.846;2022-10-16T06:22:05;7.07;;;2.90;;
52786;SDS011;38661;53.152;5.846;2022-10-16T06:24:33;4.07;;;2.42;;
52786;SDS011;38661;53.152;5.846;2022-10-16T06:27:02;7.43;;;3.25;;
52786;SDS011;38661;53.152;5.846;2022-10-16T06:29:29;9.25;;;3.17;;
52786;SDS011;38661;53.152;5.846;2022-10-16T06:31:54;6.85;;;2.13;;
52786;SDS011;38661;53.152;5.846;2022-10-16T06:34:20;5.50;;;2.40;;
52786;SDS011;38661;53.152;5.846;2022-10-16T06:36:46;7.75;;;2.60;;
52786;SDS011;38661;53.152;5.846;2022-10-16T06:39:12;7.85;;;2.70;;
52786;SDS011;38661;53.152;5.846;2022-10-16T06:41:37;3.35;;;2.00;;
52786;SDS011;38661;53.152;5.846;2022-10-16T06:44:06;4.22;;;1.83;;
52786;SDS011;38661;53.152;5.846;2022-10-16T06:46:34;6.50;;;2.88;;
52786;SDS011;38661;53.152;5.846;2022-10-16T06:49:00;7.25;;;3.00;;
52786;SDS011;38661;53.152;5.846;2022-10-16T06:51:26;7.28;;;2.17;;
52786;SDS011;38661;53.152;5.846;2022-10-16T06:53:53;8.32;;;2.55;;
52786;SDS011;38661;53.152;5.846;2022-10-16T06:56:25;4.90;;;2.22;;
52786;SDS011;38661;53.152;5.846;2022-10-16T06:58:52;9.05;;;3.28;;
52786;SDS011;38661;53.152;5.846;2022-10-16T07:01:19;6.20;;;2.50;;
52786;SDS011;38661;53.152;5.846;2022-10-16T07:03:47;6.00;;;2.45;;
52786;SDS011;38661;53.152;5.846;2022-10-16T07:06:14;5.70;;;2.05;;
52786;SDS011;38661;53.152;5.846;2022-10-16T07:08:42;8.48;;;2.53;;
52786;SDS011;38661;53.152;5.846;2022-10-16T07:11:11;3.50;;;1.80;;
52786;SDS011;38661;53.152;5.846;2022-10-16T07:13:39;6.50;;;2.42;;
52786;SDS011;38661;53.152;5.846;2022-10-16T07:16:06;8.25;;;2.67;;
52786;SDS011;38661;53.152;5.846;2022-10-16T07:18:33;4.07;;;2.63;;
52786;SDS011;38661;53.152;5.846;2022-10-16T07:21:03;5.53;;;2.75;;
52786;SDS011;38661;53.152;5.846;2022-10-16T07:23:30;7.10;;;2.70;;
52786;SDS011;38661;53.152;5.846;2022-10-16T07:25:55;4.78;;;2.30;;
52786;SDS011;38661;53.152;5.846;2022-10-16T07:28:21;8.50;;;2.80;;
52786;SDS011;38661;53.152;5.846;2022-10-16T07:30:47;9.40;;;3.20;;
52786;SDS011;38661;53.152;5.846;2022-10-16T07:33:13;5.28;;;2.63;;
52786;SDS011;38661;53.152;5.846;2022-10-16T07:35:49;7.28;;;3.60;;
52786;SDS011;38661;53.152;5.846;2022-10-16T07:38:16;9.68;;;3.53;;
52786;SDS011;38661;53.152;5.846;2022-10-16T07:40:42;6.03;;;3.80;;
52786;SDS011;38661;53.152;5.846;2022-10-16T07:43:08;8.07;;;4.25;;
52786;SDS011;38661;53.152;5.846;2022-10-16T07:45:34;6.43;;;4.22;;
52786;SDS011;38661;53.152;5.846;2022-10-16T07:47:59;7.47;;;3.95;;
52786;SDS011;38661;53.152;5.846;2022-10-16T07:50:25;10.50;;;4.75;;
52786;SDS011;38661;53.152;5.846;2022-10-16T07:52:51;8.88;;;4.45;;
52786;SDS011;38661;53.152;5.846;2022-10-16T07:55:20;7.15;;;3.42;;
52786;SDS011;38661;53.152;5.846;2022-10-16T07:57:46;9.00;;;3.47;;
52786;SDS011;38661;53.152;5.846;2022-10-16T08:00:11;4.82;;;2.65;;
52786;SDS011;38661;53.152;5.846;2022-10-16T08:02:41;6.35;;;3.47;;
52786;SDS011;38661;53.152;5.846;2022-10-16T08:05:07;7.32;;;2.80;;
52786;SDS011;38661;53.152;5.846;2022-10-16T08:07:33;7.95;;;2.67;;
52786;SDS011;38661;53.152;5.846;2022-10-16T08:09:59;5.25;;;2.40;;
52786;SDS011;38661;53.152;5.846;2022-10-16T08:12:25;5.38;;;2.47;;
52786;SDS011;38661;53.152;5.846;2022-10-16T08:14:54;8.55;;;2.70;;
52786;SDS011;38661;53.152;5.846;2022-10-16T08:17:20;7.43;;;2.70;;
52786;SDS011;38661;53.152;5.846;2022-10-16T08:19:46;8.27;;;3.38;;
52786;SDS011;38661;53.152;5.846;2022-10-16T08:22:14;9.07;;;2.97;;
52786;SDS011;38661;53.152;5.846;2022-10-16T08:24:40;6.93;;;2.45;;
52786;SDS011;38661;53.152;5.846;2022-10-16T08:27:06;10.48;;;2.80;;
52786;SDS011;38661;53.152;5.846;2022-10-16T08:29:33;14.73;;;2.35;;
52786;SDS011;38661;53.152;5.846;2022-10-16T08:31:59;5.85;;;3.05;;
52786;SDS011;38661;53.152;5.846;2022-10-16T08:34:28;8.43;;;2.88;;
52786;SDS011;38661;53.152;5.846;2022-10-16T08:36:54;9.82;;;3.60;;
52786;SDS011;38661;53.152;5.846;2022-10-16T08:39:20;7.57;;;2.47;;
52786;SDS011;38661;53.152;5.846;2022-10-16T08:41:53;9.10;;;2.80;;
52786;SDS011;38661;53.152;5.846;2022-10-16T08:44:58;9.30;;;3.10;;
52786;SDS011;38661;53.152;5.846;2022-10-16T08:47:48;13.48;;;3.33;;
52786;SDS011;38661;53.152;5.846;2022-10-16T08:50:28;7.07;;;3.10;;
52786;SDS011;38661;53.152;5.846;2022-10-16T08:52:56;7.40;;;2.53;;
52786;SDS011;38661;53.152;5.846;2022-10-16T08:55:42;9.65;;;3.42;;
52786;SDS011;38661;53.152;5.846;2022-10-16T08:58:15;9.55;;;3.03;;
52786;SDS011;38661;53.152;5.846;2022-10-16T09:00:47;8.75;;;2.47;;
52786;SDS011;38661;53.152;5.846;2022-10-16T09:12:12;10.82;;;2.45;;
52786;SDS011;38661;53.152;5.846;2022-10-16T09:15:07;12.00;;;3.17;;
52786;SDS011;38661;53.152;5.846;2022-10-16T09:17:48;7.90;;;2.47;;
52786;SDS011;38661;53.152;5.846;2022-10-16T09:23:08;8.75;;;2.83;;
52786;SDS011;38661;53.152;5.846;2022-10-16T09:25:35;7.55;;;2.78;;
52786;SDS011;38661;53.152;5.846;2022-10-16T09:28:07;7.60;;;2.55;;
52786;SDS011;38661;53.152;5.846;2022-10-16T09:30:34;8.90;;;3.35;;
52786;SDS011;38661;53.152;5.846;2022-10-16T09:33:00;10.02;;;2.88;;
52786;SDS011;38661;53.152;5.846;2022-10-16T09:35:37;9.40;;;2.83;;
52786;SDS011;38661;53.152;5.846;2022-10-16T09:38:08;3.58;;;1.73;;
52786;SDS011;38661;53.152;5.846;2022-10-16T09:40:38;11.05;;;2.60;;
52786;SDS011;38661;53.152;5.846;2022-10-16T09:45:59;9.80;;;3.05;;
52786;SDS011;38661;53.152;5.846;2022-10-16T09:48:47;8.73;;;2.28;;
52786;SDS011;38661;53.152;5.846;2022-10-16T09:51:18;9.50;;;2.15;;
52786;SDS011;38661;53.152;5.846;2022-10-16T09:56:34;11.65;;;2.95;;
52786;SDS011;38661;53.152;5.846;2022-10-16T09:59:14;11.70;;;2.20;;
52786;SDS011;38661;53.152;5.846;2022-10-16T10:02:00;12.48;;;2.85;;
52786;SDS011;38661;53.152;5.846;2022-10-16T10:04:37;10.32;;;2.45;;
52786;SDS011;38661;53.152;5.846;2022-10-16T10:07:05;13.43;;;2.80;;
52786;SDS011;38661;53.152;5.846;2022-10-16T10:09:44;10.45;;;2.25;;
52786;SDS011;38661;53.152;5.846;2022-10-16T10:12:29;13.60;;;2.58;;
52786;SDS011;38661;53.152;5.846;2022-10-16T10:15:11;8.50;;;2.72;;
52786;SDS011;38661;53.152;5.846;2022-10-16T10:17:47;11.35;;;2.30;;
52786;SDS011;38661;53.152;5.846;2022-10-16T10:22:46;8.13;;;2.60;;
52786;SDS011;38661;53.152;5.846;2022-10-16T10:30:56;12.38;;;2.50;;
52786;SDS011;38661;53.152;5.846;2022-10-16T10:38:18;8.15;;;2.35;;
52786;SDS011;38661;53.152;5.846;2022-10-16T10:41:06;15.82;;;4.38;;
52786;SDS011;38661;53.152;5.846;2022-10-16T10:44:03;11.88;;;2.70;;
52786;SDS011;38661;53.152;5.846;2022-10-16T10:46:56;12.85;;;3.17;;
52786;SDS011;38661;53.152;5.846;2022-10-16T10:52:05;8.77;;;1.73;;
52786;SDS011;38661;53.152;5.846;2022-10-16T11:06:18;10.27;;;2.20;;
52786;SDS011;38661;53.152;5.846;2022-10-16T11:11:23;10.30;;;3.40;;
52786;SDS011;38661;53.152;5.846;2022-10-16T11:16:39;8.80;;;2.65;;
52786;SDS011;38661;53.152;5.846;2022-10-16T11:27:08;13.80;;;2.95;;
52786;SDS011;38661;53.152;5.846;2022-10-16T11:30:02;8.00;;;2.50;;
52786;SDS011;38661;53.152;5.846;2022-10-16T11:32:32;14.05;;;2.47;;
52786;SDS011;38661;53.152;5.846;2022-10-16T11:35:24;10.13;;;2.40;;
52786;SDS011;38661;53.152;5.846;2022-10-16T11:37:57;9.68;;;2.00;;
52786;SDS011;38661;53.152;5.846;2022-10-16T11:40:29;15.70;;;2.78;;
52786;SDS011;38661;53.152;5.846;2022-10-16T11:43:22;9.52;;;2.25;;
52786;SDS011;38661;53.152;5.846;2022-10-16T11:46:02;7.93;;;2.25;;
52786;SDS011;38661;53.152;5.846;2022-10-16T11:48:37;10.43;;;2.65;;
52786;SDS011;38661;53.152;5.846;2022-10-16T11:53:46;10.45;;;2.40;;
52786;SDS011;38661;53.152;5.846;2022-10-16T11:56:19;10.93;;;2.42;;
52786;SDS011;38661;53.152;5.846;2022-10-16T11:59:02;9.82;;;2.90;;
52786;SDS011;38661;53.152;5.846;2022-10-16T12:01:36;7.47;;;1.95;;
52786;SDS011;38661;53.152;5.846;2022-10-16T12:04:12;12.25;;;2.58;;
52786;SDS011;38661;53.152;5.846;2022-10-16T12:07:02;12.05;;;2.95;;
52786;SDS011;38661;53.152;5.846;2022-10-16T12:09:38;10.25;;;2.67;;
52786;SDS011;38661;53.152;5.846;2022-10-16T12:15:01;10.57;;;1.80;;
52786;SDS011;38661;53.152;5.846;2022-10-16T12:17:35;9.05;;;2.10;;
52786;SDS011;38661;53.152;5.846;2022-10-16T12:22:40;11.95;;;2.15;;
52786;SDS011;38661;53.152;5.846;2022-10-16T12:27:54;10.43;;;2.10;;
52786;SDS011;38661;53.152;5.846;2022-10-16T12:30:22;8.02;;;2.10;;
52786;SDS011;38661;53.152;5.846;2022-10-16T12:35:46;9.15;;;2.50;;
52786;SDS011;38661;53.152;5.846;2022-10-16T12:40:43;10.75;;;2.75;;
52786;SDS011;38661;53.152;5.846;2022-10-16T12:43:35;8.75;;;2.65;;
52786;SDS011;38661;53.152;5.846;2022-10-16T12:48:32;9.20;;;1.88;;
52786;SDS011;38661;53.152;5.846;2022-10-16T12:51:09;8.63;;;1.92;;
52786;SDS011;38661;53.152;5.846;2022-10-16T12:54:28;11.98;;;3.35;;
52786;SDS011;38661;53.152;5.846;2022-10-16T13:08:35;12.35;;;2.40;;
52786;SDS011;38661;53.152;5.846;2022-10-16T13:11:37;9.55;;;2.40;;
52786;SDS011;38661;53.152;5.846;2022-10-16T13:20:02;9.88;;;2.60;;
52786;SDS011;38661;53.152;5.846;2022-10-16T13:30:39;9.38;;;2.17;;
52786;SDS011;38661;53.152;5.846;2022-10-16T13:35:52;12.57;;;2.67;;
52786;SDS011;38661;53.152;5.846;2022-10-16T13:38:22;7.40;;;1.70;;
52786;SDS011;38661;53.152;5.846;2022-10-16T13:40:59;7.85;;;1.98;;
52786;SDS011;38661;53.152;5.846;2022-10-16T13:46:13;8.05;;;2.50;;
52786;SDS011;38661;53.152;5.846;2022-10-16T13:48:56;10.15;;;3.30;;
52786;SDS011;38661;53.152;5.846;2022-10-16T13:51:23;10.07;;;3.20;;
52786;SDS011;38661;53.152;5.846;2022-10-16T13:53:49;10.35;;;3.13;;
52786;SDS011;38661;53.152;5.846;2022-10-16T13:56:16;4.97;;;1.48;;
52786;SDS011;38661;53.152;5.846;2022-10-16T13:58:43;10.77;;;2.38;;
52786;SDS011;38661;53.152;5.846;2022-10-16T14:01:20;10.85;;;2.50;;
52786;SDS011;38661;53.152;5.846;2022-10-16T14:03:50;8.27;;;2.38;;
52786;SDS011;38661;53.152;5.846;2022-10-16T14:06:17;14.07;;;4.05;;
52786;SDS011;38661;53.152;5.846;2022-10-16T14:09:06;11.05;;;3.10;;
52786;SDS011;38661;53.152;5.846;2022-10-16T14:11:50;8.45;;;2.53;;
52786;SDS011;38661;53.152;5.846;2022-10-16T14:14:23;9.55;;;2.33;;
52786;SDS011;38661;53.152;5.846;2022-10-16T14:16:50;8.25;;;2.65;;
52786;SDS011;38661;53.152;5.846;2022-10-16T14:21:48;5.82;;;1.58;;
52786;SDS011;38661;53.152;5.846;2022-10-16T14:26:58;12.88;;;2.10;;
52786;SDS011;38661;53.152;5.846;2022-10-16T14:29:25;12.00;;;2.70;;
52786;SDS011;38661;53.152;5.846;2022-10-16T14:34:28;15.70;;;3.25;;
52786;SDS011;38661;53.152;5.846;2022-10-16T14:37:40;10.20;;;2.50;;
52786;SDS011;38661;53.152;5.846;2022-10-16T14:39:52;11.73;;;3.67;;
52786;SDS011;38661;53.152;5.846;2022-10-16T14:42:19;7.80;;;2.70;;
52786;SDS011;38661;53.152;5.846;2022-10-16T14:44:49;10.27;;;2.53;;
52786;SDS011;38661;53.152;5.846;2022-10-16T14:47:18;10.25;;;2.38;;
52786;SDS011;38661;53.152;5.846;2022-10-16T14:49:49;10.00;;;2.47;;
52786;SDS011;38661;53.152;5.846;2022-10-16T14:52:18;11.25;;;2.67;;
52786;SDS011;38661;53.152;5.846;2022-10-16T14:54:43;9.15;;;2.28;;
52786;SDS011;38661;53.152;5.846;2022-10-16T14:57:18;7.88;;;1.95;;
52786;SDS011;38661;53.152;5.846;2022-10-16T14:59:48;11.40;;;2.58;;
52786;SDS011;38661;53.152;5.846;2022-10-16T15:04:56;11.43;;;2.45;;
52786;SDS011;38661;53.152;5.846;2022-10-16T15:07:22;9.70;;;2.83;;
52786;SDS011;38661;53.152;5.846;2022-10-16T15:09:49;13.60;;;2.97;;
52786;SDS011;38661;53.152;5.846;2022-10-16T15:12:15;14.07;;;2.78;;
52786;SDS011;38661;53.152;5.846;2022-10-16T15:14:41;10.27;;;2.38;;
52786;SDS011;38661;53.152;5.846;2022-10-16T15:17:08;11.13;;;2.50;;
52786;SDS011;38661;53.152;5.846;2022-10-16T15:19:35;12.23;;;3.47;;
52786;SDS011;38661;53.152;5.846;2022-10-16T15:22:01;12.63;;;2.75;;
52786;SDS011;38661;53.152;5.846;2022-10-16T15:24:26;7.90;;;2.42;;
52786;SDS011;38661;53.152;5.846;2022-10-16T15:26:52;15.23;;;3.50;;
52786;SDS011;38661;53.152;5.846;2022-10-16T15:29:18;15.10;;;2.80;;
52786;SDS011;38661;53.152;5.846;2022-10-16T15:31:43;11.02;;;2.53;;
52786;SDS011;38661;53.152;5.846;2022-10-16T15:34:12;11.77;;;3.53;;
52786;SDS011;38661;53.152;5.846;2022-10-16T15:36:38;12.80;;;2.65;;
52786;SDS011;38661;53.152;5.846;2022-10-16T15:39:05;12.00;;;3.10;;
52786;SDS011;38661;53.152;5.846;2022-10-16T15:41:37;13.25;;;3.50;;
52786;SDS011;38661;53.152;5.846;2022-10-16T15:44:03;13.88;;;3.33;;
52786;SDS011;38661;53.152;5.846;2022-10-16T15:46:29;11.38;;;2.90;;
52786;SDS011;38661;53.152;5.846;2022-10-16T15:48:56;12.40;;;2.55;;
52786;SDS011;38661;53.152;5.846;2022-10-16T15:51:23;14.98;;;3.13;;
52786;SDS011;38661;53.152;5.846;2022-10-16T15:53:52;11.15;;;2.80;;
52786;SDS011;38661;53.152;5.846;2022-10-16T15:56:21;13.73;;;3.90;;
52786;SDS011;38661;53.152;5.846;2022-10-16T15:58:47;14.27;;;4.32;;
52786;SDS011;38661;53.152;5.846;2022-10-16T16:01:13;12.30;;;5.47;;
52786;SDS011;38661;53.152;5.846;2022-10-16T16:03:39;16.80;;;4.38;;
52786;SDS011;38661;53.152;5.846;2022-10-16T16:06:08;11.93;;;3.63;;
52786;SDS011;38661;53.152;5.846;2022-10-16T16:08:36;13.65;;;4.03;;
52786;SDS011;38661;53.152;5.846;2022-10-16T16:11:06;7.97;;;2.97;;
52786;SDS011;38661;53.152;5.846;2022-10-16T16:13:33;10.05;;;2.90;;
52786;SDS011;38661;53.152;5.846;2022-10-16T16:16:00;19.38;;;7.95;;
52786;SDS011;38661;53.152;5.846;2022-10-16T16:18:25;16.35;;;8.45;;
52786;SDS011;38661;53.152;5.846;2022-10-16T16:20:51;27.55;;;17.25;;
52786;SDS011;38661;53.152;5.846;2022-10-16T16:23:18;41.50;;;22.33;;
52786;SDS011;38661;53.152;5.846;2022-10-16T16:25:45;36.65;;;19.10;;
52786;SDS011;38661;53.152;5.846;2022-10-16T16:28:26;40.35;;;21.00;;
52786;SDS011;38661;53.152;5.846;2022-10-16T16:30:52;43.55;;;19.85;;
52786;SDS011;38661;53.152;5.846;2022-10-16T16:33:18;31.25;;;16.45;;
52786;SDS011;38661;53.152;5.846;2022-10-16T16:35:43;50.17;;;23.85;;
52786;SDS011;38661;53.152;5.846;2022-10-16T16:38:09;27.27;;;15.95;;
52786;SDS011;38661;53.152;5.846;2022-10-16T16:40:35;17.73;;;7.10;;
52786;SDS011;38661;53.152;5.846;2022-10-16T16:43:00;12.27;;;4.10;;
52786;SDS011;38661;53.152;5.846;2022-10-16T16:45:27;12.40;;;3.95;;
52786;SDS011;38661;53.152;5.846;2022-10-16T16:47:53;16.48;;;3.92;;
52786;SDS011;38661;53.152;5.846;2022-10-16T16:50:18;24.40;;;4.68;;
52786;SDS011;38661;53.152;5.846;2022-10-16T16:52:44;15.23;;;3.38;;
52786;SDS011;38661;53.152;5.846;2022-10-16T16:55:10;10.27;;;3.47;;
52786;SDS011;38661;53.152;5.846;2022-10-16T16:57:35;10.55;;;3.20;;
52786;SDS011;38661;53.152;5.846;2022-10-16T17:00:02;11.25;;;3.00;;
52786;SDS011;38661;53.152;5.846;2022-10-16T17:02:29;15.23;;;4.07;;
52786;SDS011;38661;53.152;5.846;2022-10-16T17:04:54;11.63;;;3.05;;
52786;SDS011;38661;53.152;5.846;2022-10-16T17:07:22;15.02;;;3.75;;
52786;SDS011;38661;53.152;5.846;2022-10-16T17:09:50;6.57;;;2.65;;
52786;SDS011;38661;53.152;5.846;2022-10-16T17:12:15;8.85;;;2.55;;
52786;SDS011;38661;53.152;5.846;2022-10-16T17:14:41;9.85;;;2.40;;
52786;SDS011;38661;53.152;5.846;2022-10-16T17:17:07;15.63;;;3.10;;